sensor_id;sensor_type;location;lat;lon;timestamp;pressure;altitude;pressure_sealevel;temperature;humidity
18436;BME280;9346;52.006;4.720;2023-07-30T00:00:51;100763.84;;;18.32;100.00
18436;BME280;9346;52.006;4.720;2023-07-30T00:03:18;100770.25;;;18.33;100.00
18436;BME280;9346;52.006;4.720;2023-07-30T00:05:52;100766.94;;;18.31;100.00
18436;BME280;9346;52.006;4.720;2023-07-30T00:08:19;100763.03;;;18.32;100.00
18436;BME280;9346;52.006;4.720;2023-07-30T00:10:46;100764.16;;;18.31;100.00
18436;BME280;9346;52.006;4.720;2023-07-30T00:13:13;100761.22;;;18.27;100.00
18436;BME280;9346;52.006;4.720;2023-07-30T00:15:42;100762.69;;;18.25;100.00
18436;BME280;9346;52.006;4.720;2023-07-30T00:18:09;100769.91;;;18.26;100.00
18436;BME280;9346;52.006;4.720;2023-07-30T00:20:37;100765.00;;;18.23;100.00
18436;BME280;9346;52.006;4.720;2023-07-30T00:23:04;100762.22;;;18.23;100.00
18436;BME280;9346;52.006;4.720;2023-07-30T00:25:31;100769.75;;;18.22;100.00
18436;BME280;9346;52.006;4.720;2023-07-30T00:27:58;100771.38;;;18.23;100.00
18436;BME280;9346;52.006;4.720;2023-07-30T00:30:25;100767.78;;;18.23;100.00
18436;BME280;9346;52.006;4.720;2023-07-30T00:32:54;100771.22;;;18.20;100.00
18436;BME280;9346;52.006;4.720;2023-07-30T00:35:21;100777.44;;;18.17;100.00
18436;BME280;9346;52.006;4.720;2023-07-30T00:37:47;100776.94;;;18.15;100.00
18436;BME280;9346;52.006;4.720;2023-07-30T00:40:14;100784.50;;;18.14;100.00
18436;BME280;9346;52.006;4.720;2023-07-30T00:42:41;100787.28;;;18.14;100.00
18436;BME280;9346;52.006;4.720;2023-07-30T00:45:09;100789.56;;;18.12;100.00
18436;BME280;9346;52.006;4.720;2023-07-30T00:47:37;100792.69;;;18.11;100.00
18436;BME280;9346;52.006;4.720;2023-07-30T00:50:08;100795.47;;;18.11;100.00
18436;BME280;9346;52.006;4.720;2023-07-30T00:52:37;100794.63;;;18.10;100.00
18436;BME280;9346;52.006;4.720;2023-07-30T00:55:05;100794.97;;;18.09;100.00
18436;BME280;9346;52.006;4.720;2023-07-30T00:57:34;100794.97;;;18.09;100.00
18436;BME280;9346;52.006;4.720;2023-07-30T01:00:03;100796.13;;;18.08;100.00
18436;BME280;9346;52.006;4.720;2023-07-30T01:02:32;100794.97;;;18.09;100.00
18436;BME280;9346;52.006;4.720;2023-07-30T01:05:00;100805.63;;;18.07;100.00
18436;BME280;9346;52.006;4.720;2023-07-30T01:07:30;100803.16;;;18.05;100.00
18436;BME280;9346;52.006;4.720;2023-07-30T01:09:58;100801.50;;;18.04;100.00
18436;BME280;9346;52.006;4.720;2023-07-30T01:12:27;100805.44;;;18.03;100.00
18436;BME280;9346;52.006;4.720;2023-07-30T01:14:56;100807.44;;;18.03;100.00
18436;BME280;9346;52.006;4.720;2023-07-30T01:17:25;100801.88;;;18.03;100.00
18436;BME280;9346;52.006;4.720;2023-07-30T01:19:53;100804.13;;;18.01;100.00
18436;BME280;9346;52.006;4.720;2023-07-30T01:22:23;100803.63;;;17.99;100.00
18436;BME280;9346;52.006;4.720;2023-07-30T01:24:50;100807.56;;;17.98;100.00
18436;BME280;9346;52.006;4.720;2023-07-30T01:27:22;100803.13;;;17.88;100.00
18436;BME280;9346;52.006;4.720;2023-07-30T01:29:52;100809.84;;;17.96;100.00
18436;BME280;9346;52.006;4.720;2023-07-30T01:32:25;100814.31;;;17.97;100.00
18436;BME280;9346;52.006;4.720;2023-07-30T01:34:54;100805.94;;;17.97;100.00
18436;BME280;9346;52.006;4.720;2023-07-30T01:37:24;100811.53;;;17.97;100.00
18436;BME280;9346;52.006;4.720;2023-07-30T01:39:53;100814.31;;;17.97;100.00
18436;BME280;9346;52.006;4.720;2023-07-30T01:42:20;100811.53;;;17.97;100.00
18436;BME280;9346;52.006;4.720;2023-07-30T01:44:48;100819.88;;;17.97;100.00
18436;BME280;9346;52.006;4.720;2023-07-30T01:47:14;100815.28;;;17.92;100.00
18436;BME280;9346;52.006;4.720;2023-07-30T01:49:41;100819.03;;;17.88;100.00
18436;BME280;9346;52.006;4.720;2023-07-30T01:52:08;100812.28;;;17.89;100.00
18436;BME280;9346;52.006;4.720;2023-07-30T01:54:36;100815.09;;;17.89;100.00
18436;BME280;9346;52.006;4.720;2023-07-30T01:57:04;100820.19;;;17.87;100.00
18436;BME280;9346;52.006;4.720;2023-07-30T01:59:31;100816.06;;;17.84;100.00
18436;BME280;9346;52.006;4.720;2023-07-30T02:01:58;100817.53;;;17.82;100.00
18436;BME280;9346;52.006;4.720;2023-07-30T02:04:25;100827.50;;;17.83;100.00
18436;BME280;9346;52.006;4.720;2023-07-30T02:06:52;100822.78;;;17.83;100.00
18436;BME280;9346;52.006;4.720;2023-07-30T02:09:18;100828.34;;;17.83;100.00
18436;BME280;9346;52.006;4.720;2023-07-30T02:11:46;100819.31;;;17.77;100.00
18436;BME280;9346;52.006;4.720;2023-07-30T02:14:17;100820.44;;;17.76;100.00
18436;BME280;9346;52.006;4.720;2023-07-30T02:16:44;100824.88;;;17.77;100.00
18436;BME280;9346;52.006;4.720;2023-07-30T02:19:11;100832.75;;;17.75;100.00
18436;BME280;9346;52.006;4.720;2023-07-30T02:21:38;100818.34;;;17.73;100.00
18436;BME280;9346;52.006;4.720;2023-07-30T02:24:08;100818.34;;;17.73;100.00
18436;BME280;9346;52.006;4.720;2023-07-30T02:26:37;100824.22;;;17.72;100.00
18436;BME280;9346;52.006;4.720;2023-07-30T02:29:06;100816.19;;;17.70;100.00
18436;BME280;9346;52.006;4.720;2023-07-30T02:31:33;100811.41;;;17.71;100.00
18436;BME280;9346;52.006;4.720;2023-07-30T02:34:00;100818.97;;;17.70;100.00
18436;BME280;9346;52.006;4.720;2023-07-30T02:36:28;100818.78;;;17.67;100.00
18436;BME280;9346;52.006;4.720;2023-07-30T02:38:55;100823.53;;;17.66;100.00
18436;BME280;9346;52.006;4.720;2023-07-30T02:41:22;100823.53;;;17.66;100.00
18436;BME280;9346;52.006;4.720;2023-07-30T02:43:49;100819.28;;;17.69;100.00
18436;BME280;9346;52.006;4.720;2023-07-30T02:46:18;100811.72;;;17.69;100.00
18436;BME280;9346;52.006;4.720;2023-07-30T02:48:45;100819.09;;;17.65;100.00
18436;BME280;9346;52.006;4.720;2023-07-30T02:51:12;100819.75;;;17.62;100.00
18436;BME280;9346;52.006;4.720;2023-07-30T02:53:39;100819.75;;;17.62;100.00
18436;BME280;9346;52.006;4.720;2023-07-30T02:56:06;100820.91;;;17.61;100.00
18436;BME280;9346;52.006;4.720;2023-07-30T02:58:33;100820.56;;;17.63;100.00
18436;BME280;9346;52.006;4.720;2023-07-30T03:01:05;100819.22;;;17.60;100.00
18436;BME280;9346;52.006;4.720;2023-07-30T03:03:34;100822.38;;;17.59;100.00
18436;BME280;9346;52.006;4.720;2023-07-30T03:06:01;100825.63;;;17.61;100.00
18436;BME280;9346;52.006;4.720;2023-07-30T03:08:28;100819.22;;;17.60;100.00
18436;BME280;9346;52.006;4.720;2023-07-30T03:10:57;100819.38;;;17.55;100.00
18436;BME280;9346;52.006;4.720;2023-07-30T03:13:25;100828.38;;;17.52;100.00
18436;BME280;9346;52.006;4.720;2023-07-30T03:15:52;100823.44;;;17.49;100.00
18436;BME280;9346;52.006;4.720;2023-07-30T03:18:19;100823.78;;;17.48;100.00
18436;BME280;9346;52.006;4.720;2023-07-30T03:20:47;100825.72;;;17.47;100.00
18436;BME280;9346;52.006;4.720;2023-07-30T03:23:14;100824.91;;;17.47;100.00
18436;BME280;9346;52.006;4.720;2023-07-30T03:25:41;100822.78;;;17.44;100.00
18436;BME280;9346;52.006;4.720;2023-07-30T03:28:09;100828.94;;;17.41;100.00
18436;BME280;9346;52.006;4.720;2023-07-30T03:30:35;100830.59;;;17.42;100.00
18436;BME280;9346;52.006;4.720;2023-07-30T03:33:03;100833.06;;;17.43;100.00
18436;BME280;9346;52.006;4.720;2023-07-30T03:35:30;100830.09;;;17.40;100.00
18436;BME280;9346;52.006;4.720;2023-07-30T03:37:58;100831.22;;;17.39;100.00
18436;BME280;9346;52.006;4.720;2023-07-30T03:40:26;100838.94;;;17.42;100.00
18436;BME280;9346;52.006;4.720;2023-07-30T03:42:53;100835.34;;;17.41;100.00
18436;BME280;9346;52.006;4.720;2023-07-30T03:45:20;100823.09;;;17.42;100.00
18436;BME280;9346;52.006;4.720;2023-07-30T03:47:47;100831.13;;;17.44;100.00
18436;BME280;9346;52.006;4.720;2023-07-30T03:50:14;100835.53;;;17.45;100.00
18436;BME280;9346;52.006;4.720;2023-07-30T03:52:41;100836.06;;;17.47;100.00
18436;BME280;9346;52.006;4.720;2023-07-30T03:55:10;100835.22;;;17.46;100.00
18436;BME280;9346;52.006;4.720;2023-07-30T03:57:37;100838.94;;;17.42;100.00
18436;BME280;9346;52.006;4.720;2023-07-30T04:00:05;100845.06;;;17.44;100.00
18436;BME280;9346;52.006;4.720;2023-07-30T04:02:32;100850.63;;;17.44;100.00
18436;BME280;9346;52.006;4.720;2023-07-30T04:04:59;100843.69;;;17.41;100.00
18436;BME280;9346;52.006;4.720;2023-07-30T04:07:26;100856.19;;;17.44;100.00
18436;BME280;9346;52.006;4.720;2023-07-30T04:09:53;100850.94;;;17.42;100.00
18436;BME280;9346;52.006;4.720;2023-07-30T04:12:22;100855.34;;;17.43;100.00
18436;BME280;9346;52.006;4.720;2023-07-30T04:14:49;100855.03;;;17.45;100.00
18436;BME280;9346;52.006;4.720;2023-07-30T04:17:16;100858.13;;;17.43;100.00
18436;BME280;9346;52.006;4.720;2023-07-30T04:19:44;100857.34;;;17.43;100.00
18436;BME280;9346;52.006;4.720;2023-07-30T04:22:11;100863.06;;;17.46;100.00
18436;BME280;9346;52.006;4.720;2023-07-30T04:24:38;100864.22;;;17.45;100.00
18436;BME280;9346;52.006;4.720;2023-07-30T04:27:06;100864.22;;;17.45;100.00
18436;BME280;9346;52.006;4.720;2023-07-30T04:29:34;100862.25;;;17.46;100.00
18436;BME280;9346;52.006;4.720;2023-07-30T04:32:01;100863.38;;;17.45;100.00
18436;BME280;9346;52.006;4.720;2023-07-30T04:34:29;100867.81;;;17.46;100.00
18436;BME280;9346;52.006;4.720;2023-07-30T04:36:56;100867.00;;;17.45;100.00
18436;BME280;9346;52.006;4.720;2023-07-30T04:39:23;100864.00;;;17.42;100.00
18436;BME280;9346;52.006;4.720;2023-07-30T04:41:50;100874.84;;;17.43;100.00
18436;BME280;9346;52.006;4.720;2023-07-30T04:44:17;100868.97;;;17.45;100.00
18436;BME280;9346;52.006;4.720;2023-07-30T04:46:46;100870.28;;;17.47;100.00
18436;BME280;9346;52.006;4.720;2023-07-30T04:49:13;100878.16;;;17.45;100.00
18436;BME280;9346;52.006;4.720;2023-07-30T04:51:40;100876.69;;;17.48;100.00
18436;BME280;9346;52.006;4.720;2023-07-30T04:54:07;100883.06;;;17.48;100.00
18436;BME280;9346;52.006;4.720;2023-07-30T04:56:34;100878.50;;;17.52;100.00
18436;BME280;9346;52.006;4.720;2023-07-30T04:59:01;100875.22;;;17.50;100.00
18436;BME280;9346;52.006;4.720;2023-07-30T05:01:28;100877.19;;;17.50;100.00
18436;BME280;9346;52.006;4.720;2023-07-30T05:03:57;100882.25;;;17.48;100.00
18436;BME280;9346;52.006;4.720;2023-07-30T05:06:24;100887.19;;;17.51;100.00
18436;BME280;9346;52.006;4.720;2023-07-30T05:08:51;100884.06;;;17.52;100.00
18436;BME280;9346;52.006;4.720;2023-07-30T05:11:19;100881.09;;;17.49;100.00
18436;BME280;9346;52.006;4.720;2023-07-30T05:13:46;100888.81;;;17.52;100.00
18436;BME280;9346;52.006;4.720;2023-07-30T05:16:13;100880.78;;;17.50;100.00
18436;BME280;9346;52.006;4.720;2023-07-30T05:18:40;100885.72;;;17.53;100.00
18436;BME280;9346;52.006;4.720;2023-07-30T05:21:09;100889.00;;;17.55;100.00
18436;BME280;9346;52.006;4.720;2023-07-30T05:23:36;100892.31;;;17.57;100.00
18436;BME280;9346;52.006;4.720;2023-07-30T05:26:03;100892.94;;;17.54;100.00
18436;BME280;9346;52.006;4.720;2023-07-30T05:28:30;100892.78;;;17.59;100.00
18436;BME280;9346;52.006;4.720;2023-07-30T05:30:58;100897.88;;;17.57;100.00
18436;BME280;9346;52.006;4.720;2023-07-30T05:33:24;100897.88;;;17.57;100.00
18436;BME280;9346;52.006;4.720;2023-07-30T05:35:52;100891.78;;;17.55;100.00
18436;BME280;9346;52.006;4.720;2023-07-30T05:38:20;100894.06;;;17.53;100.00
18436;BME280;9346;52.006;4.720;2023-07-30T05:40:47;100897.88;;;17.57;100.00
18436;BME280;9346;52.006;4.720;2023-07-30T05:43:14;100892.31;;;17.57;100.00
18436;BME280;9346;52.006;4.720;2023-07-30T05:45:41;100898.69;;;17.58;100.00
18436;BME280;9346;52.006;4.720;2023-07-30T05:48:08;100897.56;;;17.59;100.00
18436;BME280;9346;52.006;4.720;2023-07-30T05:50:35;100902.16;;;17.63;100.00
18436;BME280;9346;52.006;4.720;2023-07-30T05:53:02;100893.47;;;17.65;100.00
18436;BME280;9346;52.006;4.720;2023-07-30T05:55:31;100898.91;;;17.70;100.00
18436;BME280;9346;52.006;4.720;2023-07-30T05:57:58;100901.91;;;17.73;100.00
18436;BME280;9346;52.006;4.720;2023-07-30T06:00:25;100901.06;;;17.73;100.00
18436;BME280;9346;52.006;4.720;2023-07-30T06:02:52;100906.00;;;17.76;100.00
18436;BME280;9346;52.006;4.720;2023-07-30T06:05:19;100902.75;;;17.83;100.00
18436;BME280;9346;52.006;4.720;2023-07-30T06:07:46;100895.22;;;17.83;100.00
18436;BME280;9346;52.006;4.720;2023-07-30T06:10:14;100893.25;;;17.84;100.00
18436;BME280;9346;52.006;4.720;2023-07-30T06:12:43;100891.47;;;17.88;100.00
18436;BME280;9346;52.006;4.720;2023-07-30T06:15:10;100883.28;;;17.91;100.00
18436;BME280;9346;52.006;4.720;2023-07-30T06:17:37;100879.53;;;17.96;100.00
18436;BME280;9346;52.006;4.720;2023-07-30T06:20:05;100883.97;;;17.97;100.00
18436;BME280;9346;52.006;4.720;2023-07-30T06:22:33;100879.53;;;18.04;100.00
18436;BME280;9346;52.006;4.720;2023-07-30T06:25:00;100876.44;;;18.06;100.00
18436;BME280;9346;52.006;4.720;2023-07-30T06:27:27;100869.22;;;18.05;100.00
18436;BME280;9346;52.006;4.720;2023-07-30T06:29:56;100881.84;;;18.02;100.00
18436;BME280;9346;52.006;4.720;2023-07-30T06:32:23;100878.88;;;17.99;100.00
18436;BME280;9346;52.006;4.720;2023-07-30T06:34:50;100876.59;;;18.01;100.00
18436;BME280;9346;52.006;4.720;2023-07-30T06:37:17;100891.53;;;18.05;100.00
18436;BME280;9346;52.006;4.720;2023-07-30T06:39:44;100881.53;;;18.04;100.00
18436;BME280;9346;52.006;4.720;2023-07-30T06:42:11;100891.06;;;18.03;100.00
18436;BME280;9346;52.006;4.720;2023-07-30T06:44:38;100895.31;;;18.09;100.00
18436;BME280;9346;52.006;4.720;2023-07-30T06:47:07;100891.06;;;18.11;100.00
18436;BME280;9346;52.006;4.720;2023-07-30T06:49:34;100884.84;;;18.14;100.00
18436;BME280;9346;52.006;4.720;2023-07-30T06:52:02;100878.13;;;18.15;100.00
18436;BME280;9346;52.006;4.720;2023-07-30T06:54:29;100878.97;;;18.16;100.00
18436;BME280;9346;52.006;4.720;2023-07-30T06:56:56;100898.94;;;18.18;100.00
18436;BME280;9346;52.006;4.720;2023-07-30T06:59:23;100880.09;;;18.23;100.00
18436;BME280;9346;52.006;4.720;2023-07-30T07:01:50;100886.38;;;18.29;100.00
18436;BME280;9346;52.006;4.720;2023-07-30T07:04:20;100868.16;;;18.31;100.00
18436;BME280;9346;52.006;4.720;2023-07-30T07:06:47;100869.47;;;18.34;100.00
18436;BME280;9346;52.006;4.720;2023-07-30T07:09:14;100873.56;;;18.28;100.00
18436;BME280;9346;52.006;4.720;2023-07-30T07:11:41;100880.63;;;18.34;100.00
18436;BME280;9346;52.006;4.720;2023-07-30T07:14:08;100883.41;;;18.34;100.00
18436;BME280;9346;52.006;4.720;2023-07-30T07:16:36;100874.28;;;18.42;100.00
18436;BME280;9346;52.006;4.720;2023-07-30T07:19:03;100885.59;;;18.45;100.00
18436;BME280;9346;52.006;4.720;2023-07-30T07:21:32;100885.94;;;18.44;100.00
18436;BME280;9346;52.006;4.720;2023-07-30T07:23:59;100884.81;;;18.45;100.00
18436;BME280;9346;52.006;4.720;2023-07-30T07:26:26;100888.72;;;18.44;100.00
18436;BME280;9346;52.006;4.720;2023-07-30T07:28:52;100884.63;;;18.50;100.00
18436;BME280;9346;52.006;4.720;2023-07-30T07:31:22;100892.34;;;18.53;100.00
18436;BME280;9346;52.006;4.720;2023-07-30T07:33:49;100889.06;;;18.51;100.00
18436;BME280;9346;52.006;4.720;2023-07-30T07:36:16;100902.34;;;18.54;100.00
18436;BME280;9346;52.006;4.720;2023-07-30T07:38:45;100903.84;;;18.60;100.00
18436;BME280;9346;52.006;4.720;2023-07-30T07:41:14;100902.22;;;18.59;100.00
18436;BME280;9346;52.006;4.720;2023-07-30T07:43:42;100906.16;;;18.58;100.00
18436;BME280;9346;52.006;4.720;2023-07-30T07:46:08;100913.69;;;18.57;100.00
18436;BME280;9346;52.006;4.720;2023-07-30T07:48:49;100907.28;;;18.65;100.00
18436;BME280;9346;52.006;4.720;2023-07-30T07:51:16;100912.53;;;18.67;100.00
18436;BME280;9346;52.006;4.720;2023-07-30T07:53:43;100912.41;;;18.72;100.00
18436;BME280;9346;52.006;4.720;2023-07-30T07:56:11;100905.19;;;18.79;100.00
18436;BME280;9346;52.006;4.720;2023-07-30T07:58:39;100904.03;;;18.89;100.00
18436;BME280;9346;52.006;4.720;2023-07-30T08:01:08;100911.75;;;18.92;100.00
18436;BME280;9346;52.006;4.720;2023-07-30T08:03:35;100907.97;;;18.96;100.00
18436;BME280;9346;52.006;4.720;2023-07-30T08:06:03;100906.34;;;19.04;100.00
18436;BME280;9346;52.006;4.720;2023-07-30T08:08:32;100916.00;;;19.15;100.00
18436;BME280;9346;52.006;4.720;2023-07-30T08:11:04;100912.25;;;19.28;100.00
18436;BME280;9346;52.006;4.720;2023-07-30T08:13:33;100914.72;;;19.29;100.00
18436;BME280;9346;52.006;4.720;2023-07-30T08:16:00;100918.34;;;19.30;100.00
18436;BME280;9346;52.006;4.720;2023-07-30T08:18:28;100914.38;;;19.31;100.00
18436;BME280;9346;52.006;4.720;2023-07-30T08:20:55;100914.38;;;19.39;100.00
18436;BME280;9346;52.006;4.720;2023-07-30T08:23:22;100916.69;;;19.46;100.00
18436;BME280;9346;52.006;4.720;2023-07-30T08:25:49;100910.25;;;19.54;100.00
18436;BME280;9346;52.006;4.720;2023-07-30T08:28:16;100905.69;;;19.49;100.00
18436;BME280;9346;52.006;4.720;2023-07-30T08:30:45;100900.41;;;19.48;100.00
18436;BME280;9346;52.006;4.720;2023-07-30T08:33:12;100902.88;;;19.41;100.00
18436;BME280;9346;52.006;4.720;2023-07-30T08:35:39;100898.13;;;19.41;100.00
18436;BME280;9346;52.006;4.720;2023-07-30T08:38:07;100902.06;;;19.40;100.00
18436;BME280;9346;52.006;4.720;2023-07-30T08:40:34;100906.00;;;19.39;100.00
18436;BME280;9346;52.006;4.720;2023-07-30T08:43:02;100906.16;;;19.43;100.00
18436;BME280;9346;52.006;4.720;2023-07-30T08:45:29;100902.88;;;19.41;100.00
18436;BME280;9346;52.006;4.720;2023-07-30T08:47:58;100894.81;;;19.39;100.00
18436;BME280;9346;52.006;4.720;2023-07-30T08:50:26;100896.81;;;19.39;100.00
18436;BME280;9346;52.006;4.720;2023-07-30T08:52:54;100898.63;;;19.43;100.00
18436;BME280;9346;52.006;4.720;2023-07-30T08:55:22;100899.91;;;19.46;100.00
18436;BME280;9346;52.006;4.720;2023-07-30T08:57:52;100907.44;;;19.54;100.00
18436;BME280;9346;52.006;4.720;2023-07-30T09:00:24;100905.16;;;19.56;100.00
18436;BME280;9346;52.006;4.720;2023-07-30T09:02:58;100908.78;;;19.56;100.00
18436;BME280;9346;52.006;4.720;2023-07-30T09:05:26;100907.78;;;19.61;100.00
18436;BME280;9346;52.006;4.720;2023-07-30T09:07:55;100923.06;;;19.63;100.00
18436;BME280;9346;52.006;4.720;2023-07-30T09:10:22;100913.72;;;19.59;100.00
18436;BME280;9346;52.006;4.720;2023-07-30T09:12:52;100923.56;;;19.57;100.00
18436;BME280;9346;52.006;4.720;2023-07-30T09:15:28;100911.72;;;19.60;100.00
18436;BME280;9346;52.006;4.720;2023-07-30T09:17:57;100917.47;;;19.63;100.00
18436;BME280;9346;52.006;4.720;2023-07-30T09:20:24;100919.28;;;19.68;100.00
18436;BME280;9346;52.006;4.720;2023-07-30T09:22:51;100926.47;;;19.77;100.00
18436;BME280;9346;52.006;4.720;2023-07-30T09:25:18;100922.34;;;19.83;100.00
18436;BME280;9346;52.006;4.720;2023-07-30T09:27:47;100925.75;;;19.89;100.00
18436;BME280;9346;52.006;4.720;2023-07-30T09:30:21;100921.81;;;19.99;100.00
18436;BME280;9346;52.006;4.720;2023-07-30T09:32:51;100919.94;;;20.11;100.00
18436;BME280;9346;52.006;4.720;2023-07-30T09:35:21;100916.13;;;20.24;100.00
18436;BME280;9346;52.006;4.720;2023-07-30T09:37:50;100937.97;;;20.31;100.00
18436;BME280;9346;52.006;4.720;2023-07-30T09:40:17;100929.25;;;20.32;100.00
18436;BME280;9346;52.006;4.720;2023-07-30T09:42:46;100929.38;;;20.36;100.00
18436;BME280;9346;52.006;4.720;2023-07-30T09:45:23;100939.06;;;20.38;100.00
18436;BME280;9346;52.006;4.720;2023-07-30T09:47:51;100940.38;;;20.41;100.00
18436;BME280;9346;52.006;4.720;2023-07-30T09:50:20;100943.31;;;20.44;100.00
18436;BME280;9346;52.006;4.720;2023-07-30T09:52:48;100939.38;;;20.45;100.00
18436;BME280;9346;52.006;4.720;2023-07-30T09:55:16;100940.19;;;20.46;100.00
18436;BME280;9346;52.006;4.720;2023-07-30T09:57:44;100942.03;;;20.42;100.00
18436;BME280;9346;52.006;4.720;2023-07-30T10:00:11;100945.50;;;20.39;100.00
18436;BME280;9346;52.006;4.720;2023-07-30T10:02:41;100954.38;;;20.41;100.00
18436;BME280;9346;52.006;4.720;2023-07-30T10:05:11;100959.97;;;20.41;100.00
18436;BME280;9346;52.006;4.720;2023-07-30T10:07:44;100958.66;;;20.38;100.00
18436;BME280;9346;52.006;4.720;2023-07-30T10:10:14;100955.50;;;20.40;100.00
18436;BME280;9346;52.006;4.720;2023-07-30T10:12:41;100949.59;;;20.41;100.00
18436;BME280;9346;52.006;4.720;2023-07-30T10:15:10;100960.59;;;20.46;100.00
18436;BME280;9346;52.006;4.720;2023-07-30T10:17:37;100957.28;;;20.53;100.00
18436;BME280;9346;52.006;4.720;2023-07-30T10:20:23;100959.03;;;20.57;100.00
18436;BME280;9346;52.006;4.720;2023-07-30T10:22:53;100975.84;;;20.57;100.00
18436;BME280;9346;52.006;4.720;2023-07-30T10:25:22;100977.50;;;20.58;100.00
18436;BME280;9346;52.006;4.720;2023-07-30T10:27:50;100979.13;;;20.59;100.00
18436;BME280;9346;52.006;4.720;2023-07-30T10:30:18;100984.72;;;20.59;100.00
18436;BME280;9346;52.006;4.720;2023-07-30T10:33:01;100979.41;;;20.66;100.00
18436;BME280;9346;52.006;4.720;2023-07-30T10:35:35;100974.94;;;20.74;100.00
18436;BME280;9346;52.006;4.720;2023-07-30T10:38:14;100972.75;;;20.79;100.00
18436;BME280;9346;52.006;4.720;2023-07-30T10:40:41;100974.69;;;20.87;100.00
18436;BME280;9346;52.006;4.720;2023-07-30T10:43:15;100977.94;;;20.89;100.00
18436;BME280;9346;52.006;4.720;2023-07-30T10:45:48;100993.13;;;20.88;100.00
18436;BME280;9346;52.006;4.720;2023-07-30T10:48:18;101000.22;;;20.86;100.00
18436;BME280;9346;52.006;4.720;2023-07-30T10:50:45;101001.22;;;20.81;100.00
18436;BME280;9346;52.006;4.720;2023-07-30T10:53:16;101003.06;;;20.77;100.00
18436;BME280;9346;52.006;4.720;2023-07-30T10:55:44;100995.97;;;20.80;100.00
18436;BME280;9346;52.006;4.720;2023-07-30T10:58:11;101003.19;;;20.81;100.00
18436;BME280;9346;52.006;4.720;2023-07-30T11:00:40;100995.41;;;20.86;100.00
18436;BME280;9346;52.006;4.720;2023-07-30T11:03:07;101003.94;;;20.98;100.00
18436;BME280;9346;52.006;4.720;2023-07-30T11:05:33;100996.50;;;21.02;100.00
18436;BME280;9346;52.006;4.720;2023-07-30T11:08:00;100997.59;;;21.10;100.00
18436;BME280;9346;52.006;4.720;2023-07-30T11:10:29;101003.78;;;21.24;100.00
18436;BME280;9346;52.006;4.720;2023-07-30T11:12:57;101008.66;;;21.27;100.00
18436;BME280;9346;52.006;4.720;2023-07-30T11:15:24;101003.22;;;21.30;100.00
18436;BME280;9346;52.006;4.720;2023-07-30T11:17:52;101002.72;;;21.28;100.00
18436;BME280;9346;52.006;4.720;2023-07-30T11:20:23;101006.69;;;21.27;100.00
18436;BME280;9346;52.006;4.720;2023-07-30T11:22:52;101008.88;;;21.22;100.00
18436;BME280;9346;52.006;4.720;2023-07-30T11:25:19;101026.38;;;21.19;100.00
18436;BME280;9346;52.006;4.720;2023-07-30T11:27:49;101020.63;;;21.15;100.00
18436;BME280;9346;52.006;4.720;2023-07-30T11:30:16;101021.44;;;21.16;100.00
18436;BME280;9346;52.006;4.720;2023-07-30T11:32:45;101022.63;;;21.15;100.00
18436;BME280;9346;52.006;4.720;2023-07-30T11:35:12;101022.28;;;21.16;100.00
18436;BME280;9346;52.006;4.720;2023-07-30T11:37:41;101020.44;;;21.20;100.00
18436;BME280;9346;52.006;4.720;2023-07-30T11:40:10;101016.63;;;21.25;100.00
18436;BME280;9346;52.006;4.720;2023-07-30T11:42:37;101018.75;;;21.28;100.00
18436;BME280;9346;52.006;4.720;2023-07-30T11:45:19;101029.25;;;21.31;100.00
18436;BME280;9346;52.006;4.720;2023-07-30T11:47:46;101035.66;;;21.31;100.00
18436;BME280;9346;52.006;4.720;2023-07-30T11:50:13;101039.97;;;21.29;100.00
18436;BME280;9346;52.006;4.720;2023-07-30T11:52:54;101041.16;;;21.28;100.00
18436;BME280;9346;52.006;4.720;2023-07-30T11:55:21;101040.13;;;21.32;100.00
18436;BME280;9346;52.006;4.720;2023-07-30T11:57:49;101035.97;;;21.38;100.00
18436;BME280;9346;52.006;4.720;2023-07-30T12:00:21;101039.72;;;21.42;100.00
18436;BME280;9346;52.006;4.720;2023-07-30T12:02:48;101042.53;;;21.42;100.00
18436;BME280;9346;52.006;4.720;2023-07-30T12:05:17;101050.44;;;21.40;100.00
18436;BME280;9346;52.006;4.720;2023-07-30T12:07:47;101041.28;;;21.31;100.00
18436;BME280;9346;52.006;4.720;2023-07-30T12:10:14;101046.06;;;21.31;100.00
18436;BME280;9346;52.006;4.720;2023-07-30T12:12:44;101042.25;;;21.35;100.00
18436;BME280;9346;52.006;4.720;2023-07-30T12:15:12;101040.06;;;21.41;100.00
18436;BME280;9346;52.006;4.720;2023-07-30T12:17:41;101055.50;;;21.47;100.00
18436;BME280;9346;52.006;4.720;2023-07-30T12:20:09;101044.41;;;21.50;100.00
18436;BME280;9346;52.006;4.720;2023-07-30T12:22:37;101048.88;;;21.51;100.00
18436;BME280;9346;52.006;4.720;2023-07-30T12:25:09;101041.09;;;21.57;100.00
18436;BME280;9346;52.006;4.720;2023-07-30T12:27:36;101038.41;;;21.60;100.00
18436;BME280;9346;52.006;4.720;2023-07-30T12:30:04;101045.66;;;21.61;100.00
18436;BME280;9346;52.006;4.720;2023-07-30T12:32:31;101040.41;;;21.60;100.00
18436;BME280;9346;52.006;4.720;2023-07-30T12:34:59;101046.34;;;21.58;100.00
18436;BME280;9346;52.006;4.720;2023-07-30T12:37:26;101040.41;;;21.60;100.00
18436;BME280;9346;52.006;4.720;2023-07-30T12:39:54;101053.72;;;21.63;100.00
18436;BME280;9346;52.006;4.720;2023-07-30T12:42:21;101044.00;;;21.60;100.00
18436;BME280;9346;52.006;4.720;2023-07-30T12:44:48;101039.91;;;21.58;100.00
18436;BME280;9346;52.006;4.720;2023-07-30T12:47:15;101046.34;;;21.58;100.00
18436;BME280;9346;52.006;4.720;2023-07-30T12:49:42;101059.19;;;21.59;100.00
18436;BME280;9346;52.006;4.720;2023-07-30T12:52:13;101055.44;;;21.55;100.00
18436;BME280;9346;52.006;4.720;2023-07-30T12:54:40;101054.59;;;21.55;100.00